Time;durP1;ratioP1;P1;durP2;ratioP2;P2;SDS_P1;SDS_P2;PMS_P1;PMS_P2;Temp;Humidity;BMP_temperature;BMP_pressure;BME280_temperature;BME280_humidity;BME280_pressure;Samples;Min_cycle;Max_cycle;Signal;HPM_P1;HPM_P2
2021/12/10 00:00:29;;;;;;;9.68;2.30;;;;;;;;;;5024997;28;20095;-72
2021/12/10 00:02:56;;;;;;;11.45;2.50;;;;;;;;;;5035686;28;20060;-74
2021/12/10 00:05:27;;;;;;;10.57;2.17;;;;;;;;;;5035247;28;20021;-72
2021/12/10 00:07:55;;;;;;;15.68;2.63;;;;;;;;;;5029405;28;20029;-75
2021/12/10 00:10:23;;;;;;;11.40;2.25;;;;;;;;;;5039317;28;20458;-72
2021/12/10 00:12:51;;;;;;;10.70;1.90;;;;;;;;;;5035416;28;20481;-72
2021/12/10 00:15:22;;;;;;;12.18;2.22;;;;;;;;;;5033338;28;20412;-71
2021/12/10 00:17:50;;;;;;;12.77;2.23;;;;;;;;;;5035341;28;20052;-72
2021/12/10 00:20:17;;;;;;;10.77;1.85;;;;;;;;;;5028886;28;20393;-71
2021/12/10 00:22:51;;;;;;;14.48;2.78;;;;;;;;;;5038558;28;20029;-72
2021/12/10 00:25:20;;;;;;;13.10;2.08;;;;;;;;;;5063856;28;20028;-74
2021/12/10 00:27:47;;;;;;;9.82;1.67;;;;;;;;;;5032789;28;20368;-72
2021/12/10 00:30:17;;;;;;;10.05;1.73;;;;;;;;;;5030569;28;20040;-72
2021/12/10 00:32:57;;;;;;;7.47;2.00;;;;;;;;;;5047826;28;20938;-74
2021/12/10 00:35:25;;;;;;;7.60;2.30;;;;;;;;;;5029966;28;20385;-72
2021/12/10 00:37:51;;;;;;;13.25;1.98;;;;;;;;;;5040527;28;20072;-72
2021/12/10 00:40:20;;;;;;;10.80;1.98;;;;;;;;;;5031509;28;20090;-73
2021/12/10 00:42:46;;;;;;;11.55;2.25;;;;;;;;;;5027803;28;20630;-72
2021/12/10 00:45:14;;;;;;;10.75;1.83;;;;;;;;;;5038930;28;20017;-75
2021/12/10 00:47:41;;;;;;;11.95;1.98;;;;;;;;;;5031894;28;20036;-73
2021/12/10 00:50:10;;;;;;;9.32;1.92;;;;;;;;;;5034543;28;20123;-72
2021/12/10 00:52:36;;;;;;;8.43;2.28;;;;;;;;;;5036292;28;20154;-71
2021/12/10 00:55:04;;;;;;;9.65;2.15;;;;;;;;;;5032177;28;20025;-72
2021/12/10 00:57:30;;;;;;;12.98;2.78;;;;;;;;;;5033298;28;20112;-73
2021/12/10 00:59:56;;;;;;;8.93;1.52;;;;;;;;;;5034297;28;20049;-75
2021/12/10 01:02:23;;;;;;;13.85;1.92;;;;;;;;;;5030143;28;20397;-76
2021/12/10 01:04:51;;;;;;;13.85;1.98;;;;;;;;;;5030258;28;20017;-76
2021/12/10 01:07:19;;;;;;;11.73;2.05;;;;;;;;;;5032552;28;20056;-75
2021/12/10 01:09:47;;;;;;;10.23;1.70;;;;;;;;;;5028507;28;20030;-72
2021/12/10 01:12:27;;;;;;;14.50;2.85;;;;;;;;;;5035262;28;20087;-74
2021/12/10 01:26:25;;;;;;;9.85;2.03;;;;;;;;;;5037095;28;20059;-76
2021/12/10 01:28:56;;;;;;;10.35;1.88;;;;;;;;;;5030379;28;20551;-72
2021/12/10 01:31:22;;;;;;;11.93;2.60;;;;;;;;;;5028026;28;20014;-74
2021/12/10 01:33:50;;;;;;;10.85;1.83;;;;;;;;;;5036785;28;20029;-72
2021/12/10 01:36:16;;;;;;;6.65;1.48;;;;;;;;;;5034752;28;20078;-76
2021/12/10 01:38:45;;;;;;;10.52;2.17;;;;;;;;;;5042849;28;20798;-72
2021/12/10 01:41:15;;;;;;;9.85;2.72;;;;;;;;;;5040800;28;20095;-76
2021/12/10 01:43:43;;;;;;;19.05;1.70;;;;;;;;;;5036706;28;20745;-73
2021/12/10 01:46:14;;;;;;;8.65;2.60;;;;;;;;;;5034545;28;20083;-74
2021/12/10 01:48:41;;;;;;;9.70;2.67;;;;;;;;;;5038632;28;20045;-72
2021/12/10 01:51:08;;;;;;;10.48;2.33;;;;;;;;;;5039220;28;20021;-73
2021/12/10 01:53:37;;;;;;;11.63;1.92;;;;;;;;;;5030933;28;20029;-72
2021/12/10 01:56:08;;;;;;;11.40;2.22;;;;;;;;;;5038189;28;20037;-71
2021/12/10 01:58:35;;;;;;;14.65;1.80;;;;;;;;;;5033518;28;20026;-76
2021/12/10 02:01:07;;;;;;;10.07;2.33;;;;;;;;;;5039129;28;20052;-74
2021/12/10 02:03:34;;;;;;;13.35;2.60;;;;;;;;;;5036709;28;20033;-74
2021/12/10 02:06:00;;;;;;;8.93;1.77;;;;;;;;;;5033126;28;20112;-72
2021/12/10 02:08:27;;;;;;;7.88;1.58;;;;;;;;;;5035916;28;20025;-72
2021/12/10 02:10:53;;;;;;;10.18;1.80;;;;;;;;;;5035190;28;20029;-71
2021/12/10 02:13:19;;;;;;;11.68;1.77;;;;;;;;;;5034338;28;20052;-74
2021/12/10 02:15:45;;;;;;;8.98;2.13;;;;;;;;;;5033339;28;20040;-73
2021/12/10 02:18:12;;;;;;;13.85;2.65;;;;;;;;;;5037132;28;20029;-74
2021/12/10 02:20:51;;;;;;;7.85;1.73;;;;;;;;;;5037183;28;20029;-74
2021/12/10 02:23:17;;;;;;;8.90;1.60;;;;;;;;;;5031855;28;20127;-73
2021/12/10 02:25:43;;;;;;;8.05;1.73;;;;;;;;;;5037718;28;20017;-73
2021/12/10 02:28:10;;;;;;;8.10;1.95;;;;;;;;;;5033861;28;20025;-72
2021/12/10 02:30:39;;;;;;;9.80;2.42;;;;;;;;;;5035052;28;20037;-72
2021/12/10 02:33:05;;;;;;;8.73;2.15;;;;;;;;;;5040411;28;20029;-74
2021/12/10 02:35:32;;;;;;;10.00;2.17;;;;;;;;;;5036789;28;20033;-74
2021/12/10 02:37:59;;;;;;;13.73;1.90;;;;;;;;;;5028792;28;20018;-73
2021/12/10 02:40:26;;;;;;;10.02;1.45;;;;;;;;;;5038932;28;20025;-74
2021/12/10 02:42:53;;;;;;;11.13;1.88;;;;;;;;;;5036581;28;20107;-74
2021/12/10 02:45:20;;;;;;;9.73;1.80;;;;;;;;;;5036684;28;20075;-73
2021/12/10 02:47:47;;;;;;;8.70;1.70;;;;;;;;;;5034416;28;20441;-74
2021/12/10 02:50:15;;;;;;;9.88;3.65;;;;;;;;;;5038739;28;20035;-74
2021/12/10 02:52:42;;;;;;;9.10;1.95;;;;;;;;;;5034059;28;20040;-74
2021/12/10 02:55:15;;;;;;;15.90;2.13;;;;;;;;;;5033193;28;20017;-74
2021/12/10 02:57:41;;;;;;;11.55;2.33;;;;;;;;;;5038044;28;20512;-73
2021/12/10 03:00:13;;;;;;;8.27;1.55;;;;;;;;;;5035784;28;20478;-73
2021/12/10 03:02:39;;;;;;;14.63;2.65;;;;;;;;;;5026225;28;20579;-74
2021/12/10 03:05:07;;;;;;;9.85;1.70;;;;;;;;;;5035223;28;20036;-74
2021/12/10 03:07:33;;;;;;;16.77;2.40;;;;;;;;;;5027464;28;20545;-74
2021/12/10 03:09:59;;;;;;;11.88;2.00;;;;;;;;;;5026146;28;20037;-72
2021/12/10 03:12:26;;;;;;;13.93;1.70;;;;;;;;;;5025597;28;20252;-72
2021/12/10 03:14:54;;;;;;;9.13;2.08;;;;;;;;;;5033407;28;20032;-72
2021/12/10 03:17:22;;;;;;;11.55;2.17;;;;;;;;;;5030902;28;20029;-73
2021/12/10 03:19:49;;;;;;;10.48;1.83;;;;;;;;;;5032552;28;20422;-72
2021/12/10 03:22:15;;;;;;;11.73;1.75;;;;;;;;;;5030162;28;20055;-74
2021/12/10 03:24:41;;;;;;;18.27;2.70;;;;;;;;;;5030246;28;20033;-73
2021/12/10 03:27:10;;;;;;;10.27;1.95;;;;;;;;;;5028052;28;20237;-74
2021/12/10 03:29:37;;;;;;;8.05;2.15;;;;;;;;;;5030390;28;20391;-74
2021/12/10 03:32:05;;;;;;;14.95;2.40;;;;;;;;;;5028569;28;20029;-73
2021/12/10 03:34:32;;;;;;;11.60;1.90;;;;;;;;;;5023305;28;20037;-73
2021/12/10 03:36:59;;;;;;;9.77;1.48;;;;;;;;;;5036622;28;20032;-73
2021/12/10 03:39:26;;;;;;;13.10;2.17;;;;;;;;;;5032065;28;20041;-72
2021/12/10 03:41:53;;;;;;;12.65;1.55;;;;;;;;;;5025757;28;20115;-75
2021/12/10 03:44:20;;;;;;;6.63;1.85;;;;;;;;;;5032355;28;20056;-75
2021/12/10 03:46:46;;;;;;;11.45;2.20;;;;;;;;;;5026562;28;20596;-73
2021/12/10 03:49:13;;;;;;;16.15;2.88;;;;;;;;;;5025878;28;20045;-73
2021/12/10 03:51:39;;;;;;;12.00;2.30;;;;;;;;;;5029455;28;20029;-74
2021/12/10 03:54:06;;;;;;;12.85;2.42;;;;;;;;;;5032597;28;20033;-74
2021/12/10 03:56:34;;;;;;;9.18;2.15;;;;;;;;;;5027869;28;20033;-74
2021/12/10 03:59:02;;;;;;;9.20;1.55;;;;;;;;;;5028021;28;20200;-73
2021/12/10 04:01:32;;;;;;;15.55;2.65;;;;;;;;;;5037752;28;20040;-73
2021/12/10 04:03:59;;;;;;;8.20;2.17;;;;;;;;;;5026417;28;20379;-73
2021/12/10 04:06:26;;;;;;;9.77;2.08;;;;;;;;;;5025583;28;20500;-73
2021/12/10 04:08:52;;;;;;;12.18;2.47;;;;;;;;;;5037958;28;20028;-73
2021/12/10 04:11:19;;;;;;;11.73;2.05;;;;;;;;;;5028904;28;20032;-72
2021/12/10 04:13:46;;;;;;;6.28;2.15;;;;;;;;;;5029250;28;20084;-75
2021/12/10 04:16:12;;;;;;;9.77;1.60;;;;;;;;;;5023329;28;20029;-75
2021/12/10 04:18:39;;;;;;;9.10;1.83;;;;;;;;;;5034201;28;20397;-75
2021/12/10 04:21:06;;;;;;;7.72;2.28;;;;;;;;;;5025974;28;20034;-74
2021/12/10 04:23:32;;;;;;;11.05;1.75;;;;;;;;;;5035685;28;20035;-75
2021/12/10 04:25:59;;;;;;;10.38;1.83;;;;;;;;;;5030873;28;20025;-74
2021/12/10 04:28:25;;;;;;;7.53;1.95;;;;;;;;;;5026823;28;20080;-72
2021/12/10 04:30:51;;;;;;;12.60;2.00;;;;;;;;;;5020905;28;20030;-74
2021/12/10 04:33:22;;;;;;;6.28;1.55;;;;;;;;;;5020792;28;20021;-73
2021/12/10 04:35:49;;;;;;;5.03;1.40;;;;;;;;;;5034574;28;20408;-73
2021/12/10 04:38:17;;;;;;;22.30;2.40;;;;;;;;;;5026967;28;20025;-73
2021/12/10 04:40:47;;;;;;;7.78;2.85;;;;;;;;;;5031788;28;20029;-71
2021/12/10 04:43:13;;;;;;;6.63;1.67;;;;;;;;;;5026423;28;20029;-74
2021/12/10 04:45:39;;;;;;;4.00;1.17;;;;;;;;;;5027287;28;20025;-77
2021/12/10 04:48:05;;;;;;;7.18;1.65;;;;;;;;;;5022461;28;20024;-75
2021/12/10 04:50:32;;;;;;;7.47;1.92;;;;;;;;;;5032537;28;20078;-75
2021/12/10 04:52:58;;;;;;;10.68;2.50;;;;;;;;;;5026859;28;20513;-76
2021/12/10 04:55:24;;;;;;;7.55;1.70;;;;;;;;;;5023037;28;20029;-75
2021/12/10 04:57:51;;;;;;;7.93;1.75;;;;;;;;;;5026357;28;20388;-75
2021/12/10 05:00:23;;;;;;;5.85;1.20;;;;;;;;;;5026728;28;20053;-74
2021/12/10 05:02:49;;;;;;;16.08;1.77;;;;;;;;;;5026210;28;20056;-73
2021/12/10 05:05:15;;;;;;;9.75;1.90;;;;;;;;;;5025011;28;20366;-73
2021/12/10 05:07:42;;;;;;;10.52;1.67;;;;;;;;;;5033506;28;20044;-75
2021/12/10 05:10:10;;;;;;;8.38;1.63;;;;;;;;;;5025189;28;20124;-74
2021/12/10 05:12:36;;;;;;;8.10;1.60;;;;;;;;;;5026041;28;20524;-74
2021/12/10 05:15:05;;;;;;;24.35;4.72;;;;;;;;;;5024551;28;20535;-75
2021/12/10 05:17:33;;;;;;;6.03;1.38;;;;;;;;;;5032510;28;20075;-77
2021/12/10 05:20:00;;;;;;;8.88;1.40;;;;;;;;;;5025404;28;20389;-73
2021/12/10 05:22:27;;;;;;;8.00;1.60;;;;;;;;;;5023845;28;20041;-76
2021/12/10 05:24:53;;;;;;;7.18;1.83;;;;;;;;;;5034751;28;20481;-75
2021/12/10 05:27:20;;;;;;;11.20;1.80;;;;;;;;;;5033280;28;20027;-73
2021/12/10 05:29:47;;;;;;;9.50;1.50;;;;;;;;;;5024169;28;20068;-76
2021/12/10 05:32:16;;;;;;;9.93;1.70;;;;;;;;;;5031137;28;20797;-74
2021/12/10 05:34:43;;;;;;;6.63;2.25;;;;;;;;;;5028733;28;20525;-76
2021/12/10 05:37:09;;;;;;;10.52;2.10;;;;;;;;;;5023813;28;20033;-77
2021/12/10 05:39:35;;;;;;;12.85;2.17;;;;;;;;;;5035193;28;20370;-75
2021/12/10 05:42:04;;;;;;;9.50;1.80;;;;;;;;;;5031322;28;20025;-75
2021/12/10 05:44:30;;;;;;;5.93;1.30;;;;;;;;;;5026996;28;20877;-74
2021/12/10 05:46:58;;;;;;;7.53;1.60;;;;;;;;;;5021823;28;20101;-75
2021/12/10 05:49:24;;;;;;;6.00;1.45;;;;;;;;;;5027524;28;20736;-76
2021/12/10 05:51:50;;;;;;;6.00;1.42;;;;;;;;;;5025525;28;20039;-77
2021/12/10 05:54:17;;;;;;;7.70;1.38;;;;;;;;;;5024547;28;20029;-75
2021/12/10 05:56:43;;;;;;;7.03;1.73;;;;;;;;;;5028310;28;20086;-72
2021/12/10 05:59:09;;;;;;;5.43;1.15;;;;;;;;;;5025922;28;20029;-73
2021/12/10 06:01:36;;;;;;;4.57;1.20;;;;;;;;;;5019643;28;20108;-76
2021/12/10 06:04:03;;;;;;;11.30;1.65;;;;;;;;;;5027080;28;20340;-75
2021/12/10 06:06:30;;;;;;;5.57;1.65;;;;;;;;;;5028058;28;20029;-76
2021/12/10 06:08:57;;;;;;;9.77;1.23;;;;;;;;;;5029209;28;20377;-75
2021/12/10 06:11:25;;;;;;;8.77;1.48;;;;;;;;;;5027798;28;20037;-76
2021/12/10 06:13:52;;;;;;;7.47;1.33;;;;;;;;;;5029443;28;20033;-76
2021/12/10 06:16:18;;;;;;;10.70;1.45;;;;;;;;;;5024778;28;20383;-75
2021/12/10 06:18:44;;;;;;;6.78;1.65;;;;;;;;;;5020982;28;20025;-75
2021/12/10 06:21:11;;;;;;;7.65;1.80;;;;;;;;;;5023272;28;20028;-77
2021/12/10 06:23:37;;;;;;;7.47;1.40;;;;;;;;;;5029628;28;20033;-73
2021/12/10 06:26:04;;;;;;;9.93;1.83;;;;;;;;;;5028359;28;20612;-75
2021/12/10 06:28:30;;;;;;;9.40;1.67;;;;;;;;;;5024946;28;20123;-75
2021/12/10 06:30:57;;;;;;;6.97;1.17;;;;;;;;;;5033851;28;20982;-73
2021/12/10 06:33:27;;;;;;;16.10;1.65;;;;;;;;;;5026137;28;20033;-78
2021/12/10 06:35:54;;;;;;;7.60;1.88;;;;;;;;;;5022987;28;20025;-76
2021/12/10 06:38:21;;;;;;;9.32;1.70;;;;;;;;;;5033914;28;20516;-76
2021/12/10 06:40:49;;;;;;;8.02;1.50;;;;;;;;;;5028291;28;20474;-77
2021/12/10 06:43:15;;;;;;;9.23;2.08;;;;;;;;;;5030192;28;20036;-74
2021/12/10 06:45:42;;;;;;;12.68;1.98;;;;;;;;;;5033737;28;20037;-75
2021/12/10 06:48:09;;;;;;;10.00;1.40;;;;;;;;;;5031902;28;20033;-76
2021/12/10 06:50:38;;;;;;;8.90;1.65;;;;;;;;;;5031823;28;20045;-78
2021/12/10 06:53:04;;;;;;;13.02;1.55;;;;;;;;;;5024015;28;20064;-77
2021/12/10 06:55:31;;;;;;;9.48;2.03;;;;;;;;;;5032616;28;20043;-75
2021/12/10 06:57:57;;;;;;;9.80;1.45;;;;;;;;;;5029554;28;20060;-76
2021/12/10 07:00:26;;;;;;;11.00;2.15;;;;;;;;;;5026421;28;20077;-77
2021/12/10 07:02:52;;;;;;;11.05;1.60;;;;;;;;;;5024332;28;20528;-77
2021/12/10 07:05:18;;;;;;;9.18;1.70;;;;;;;;;;5031723;28;20477;-77
2021/12/10 07:07:45;;;;;;;5.68;1.20;;;;;;;;;;5024136;28;20026;-77
2021/12/10 07:10:11;;;;;;;5.72;1.40;;;;;;;;;;5031223;28;20358;-76
2021/12/10 07:12:39;;;;;;;11.18;1.70;;;;;;;;;;5030119;28;20048;-76
2021/12/10 07:15:09;;;;;;;8.77;1.25;;;;;;;;;;5028631;28;20032;-76
2021/12/10 07:17:35;;;;;;;10.20;1.58;;;;;;;;;;5024571;28;20033;-77
2021/12/10 07:20:01;;;;;;;8.27;1.17;;;;;;;;;;5028316;28;20083;-76
2021/12/10 07:22:28;;;;;;;5.13;1.38;;;;;;;;;;5028473;28;20028;-78
2021/12/10 07:24:54;;;;;;;11.23;1.55;;;;;;;;;;5022832;28;20022;-75
2021/12/10 07:27:20;;;;;;;4.88;0.90;;;;;;;;;;5030928;28;20039;-75
2021/12/10 07:29:47;;;;;;;7.00;1.50;;;;;;;;;;5028732;28;20402;-75
2021/12/10 07:32:14;;;;;;;9.05;1.92;;;;;;;;;;5022576;28;20389;-75
2021/12/10 07:34:40;;;;;;;5.18;1.40;;;;;;;;;;5025041;28;20058;-73
2021/12/10 07:37:09;;;;;;;6.45;1.50;;;;;;;;;;5030327;28;20033;-72
2021/12/10 07:39:35;;;;;;;4.22;1.40;;;;;;;;;;5026904;28;20064;-72
2021/12/10 07:42:02;;;;;;;5.38;1.27;;;;;;;;;;5022171;28;20075;-72
2021/12/10 07:44:29;;;;;;;7.78;1.42;;;;;;;;;;5038341;28;20126;-73
2021/12/10 07:46:56;;;;;;;4.68;1.50;;;;;;;;;;5028095;28;20168;-73
2021/12/10 07:49:28;;;;;;;6.68;1.20;;;;;;;;;;5023176;28;20453;-72
2021/12/10 07:51:55;;;;;;;7.43;1.63;;;;;;;;;;5032174;28;20039;-73
2021/12/10 07:54:22;;;;;;;4.78;1.40;;;;;;;;;;5026133;28;20239;-72
2021/12/10 07:56:49;;;;;;;4.30;1.20;;;;;;;;;;5023338;28;20494;-73
2021/12/10 07:59:15;;;;;;;6.85;1.17;;;;;;;;;;5032639;28;20332;-73
2021/12/10 08:01:41;;;;;;;4.53;1.38;;;;;;;;;;5027914;28;20120;-73
2021/12/10 08:04:08;;;;;;;8.82;2.55;;;;;;;;;;5028225;28;20280;-73
2021/12/10 08:06:35;;;;;;;6.30;2.65;;;;;;;;;;5023427;28;20417;-73
2021/12/10 08:09:03;;;;;;;8.95;2.22;;;;;;;;;;5026253;28;20110;-72
2021/12/10 08:11:29;;;;;;;8.35;1.98;;;;;;;;;;5028617;28;20436;-72
2021/12/10 08:13:57;;;;;;;6.55;1.27;;;;;;;;;;5023250;28;20033;-72
2021/12/10 08:16:25;;;;;;;10.00;1.75;;;;;;;;;;5028620;28;20028;-73
2021/12/10 08:18:51;;;;;;;13.35;1.63;;;;;;;;;;5032705;28;20047;-72
2021/12/10 08:21:18;;;;;;;6.40;1.83;;;;;;;;;;5025990;28;20037;-72
2021/12/10 08:23:44;;;;;;;7.20;1.48;;;;;;;;;;5030897;28;20329;-72
2021/12/10 08:26:12;;;;;;;4.78;2.00;;;;;;;;;;5031563;28;20029;-72
2021/12/10 08:28:39;;;;;;;6.70;2.42;;;;;;;;;;5028571;28;20036;-73
2021/12/10 08:31:05;;;;;;;10.38;1.90;;;;;;;;;;5023314;28;20115;-73
2021/12/10 08:33:32;;;;;;;6.82;1.33;;;;;;;;;;5030264;28;20502;-73
2021/12/10 08:36:01;;;;;;;3.42;1.23;;;;;;;;;;5026164;28;21708;-72
2021/12/10 08:38:28;;;;;;;4.82;1.35;;;;;;;;;;5025444;28;20025;-73
2021/12/10 08:40:57;;;;;;;6.80;1.60;;;;;;;;;;5028752;28;20168;-73
2021/12/10 08:43:24;;;;;;;8.25;2.05;;;;;;;;;;5026017;28;20098;-73
2021/12/10 08:45:53;;;;;;;5.60;1.40;;;;;;;;;;5023648;28;20473;-73
2021/12/10 08:48:23;;;;;;;6.10;1.33;;;;;;;;;;5025339;28;20033;-72
2021/12/10 08:50:49;;;;;;;4.93;1.35;;;;;;;;;;5027422;28;20406;-73
2021/12/10 08:53:16;;;;;;;7.82;1.70;;;;;;;;;;5031585;28;20047;-72
2021/12/10 08:55:44;;;;;;;8.68;1.58;;;;;;;;;;5022463;28;20482;-73
2021/12/10 08:58:11;;;;;;;7.90;1.75;;;;;;;;;;5034231;28;20037;-75
2021/12/10 09:00:38;;;;;;;6.68;1.67;;;;;;;;;;5022371;28;20502;-72
2021/12/10 09:03:04;;;;;;;5.03;1.15;;;;;;;;;;5022630;28;20036;-77
2021/12/10 09:05:31;;;;;;;7.50;1.10;;;;;;;;;;5026157;28;20496;-81
2021/12/10 09:07:58;;;;;;;5.43;1.20;;;;;;;;;;5028970;28;20197;-73
2021/12/10 09:10:27;;;;;;;7.75;1.40;;;;;;;;;;5026848;28;20130;-75
2021/12/10 09:12:54;;;;;;;5.90;1.58;;;;;;;;;;5023483;28;20379;-75
2021/12/10 09:15:22;;;;;;;7.00;1.70;;;;;;;;;;5030860;28;20104;-73
2021/12/10 09:17:49;;;;;;;7.78;1.63;;;;;;;;;;5024212;28;20535;-73
2021/12/10 09:20:18;;;;;;;5.72;1.17;;;;;;;;;;5025265;28;20034;-73
2021/12/10 09:22:44;;;;;;;3.58;1.00;;;;;;;;;;5027705;28;20339;-73
2021/12/10 09:25:11;;;;;;;5.28;2.15;;;;;;;;;;5027921;28;20562;-76
2021/12/10 09:27:37;;;;;;;8.43;1.42;;;;;;;;;;5025482;28;20318;-73
2021/12/10 09:30:05;;;;;;;8.43;1.55;;;;;;;;;;5027857;28;20502;-75
2021/12/10 09:32:32;;;;;;;3.35;1.30;;;;;;;;;;5026034;28;20039;-72
2021/12/10 09:35:02;;;;;;;6.30;1.40;;;;;;;;;;5025009;28;20315;-73
2021/12/10 09:37:29;;;;;;;8.55;1.45;;;;;;;;;;5020173;28;20117;-72
2021/12/10 09:39:55;;;;;;;7.05;2.28;;;;;;;;;;5026817;28;20424;-72
2021/12/10 09:42:22;;;;;;;4.28;1.20;;;;;;;;;;5035190;28;20036;-71
2021/12/10 09:44:51;;;;;;;7.75;1.27;;;;;;;;;;5033927;28;20075;-73
2021/12/10 09:47:17;;;;;;;8.38;1.20;;;;;;;;;;5019223;28;20117;-72
2021/12/10 09:49:48;;;;;;;4.07;1.10;;;;;;;;;;5033293;28;20125;-73
2021/12/10 09:52:16;;;;;;;9.48;1.52;;;;;;;;;;5034712;28;20056;-71
2021/12/10 09:54:42;;;;;;;6.13;1.48;;;;;;;;;;5030891;28;20030;-72
2021/12/10 09:57:14;;;;;;;6.63;1.33;;;;;;;;;;5026276;28;20056;-72
2021/12/10 09:59:43;;;;;;;3.75;1.25;;;;;;;;;;5034688;28;20121;-73
2021/12/10 10:02:09;;;;;;;3.85;1.00;;;;;;;;;;5026485;28;20038;-73
2021/12/10 10:04:37;;;;;;;7.65;1.73;;;;;;;;;;5039303;28;20021;-73
2021/12/10 10:07:10;;;;;;;6.38;1.48;;;;;;;;;;5031657;28;20025;-73
2021/12/10 10:09:37;;;;;;;3.13;1.13;;;;;;;;;;5031533;28;20037;-71
2021/12/10 10:12:08;;;;;;;5.00;1.20;;;;;;;;;;5032083;28;20071;-72
2021/12/10 10:14:35;;;;;;;5.43;1.17;;;;;;;;;;5029774;28;20051;-73
2021/12/10 10:17:01;;;;;;;3.20;0.90;;;;;;;;;;5024316;28;20596;-73
2021/12/10 10:19:28;;;;;;;7.63;1.17;;;;;;;;;;5027409;28;20360;-71
2021/12/10 10:21:55;;;;;;;3.13;1.27;;;;;;;;;;5031056;28;20029;-72
2021/12/10 10:24:23;;;;;;;3.10;0.90;;;;;;;;;;5029032;28;20079;-71
2021/12/10 10:26:53;;;;;;;4.07;1.17;;;;;;;;;;5031539;28;20136;-72
2021/12/10 10:29:21;;;;;;;1.67;0.77;;;;;;;;;;5037791;28;20071;-72
2021/12/10 10:31:53;;;;;;;4.82;1.27;;;;;;;;;;5027788;28;20025;-73
2021/12/10 10:34:20;;;;;;;2.65;0.90;;;;;;;;;;5043973;28;20035;-71
2021/12/10 10:36:47;;;;;;;5.97;1.02;;;;;;;;;;5034730;28;20029;-71
2021/12/10 10:39:17;;;;;;;5.32;1.50;;;;;;;;;;5034072;28;20519;-74
2021/12/10 10:41:46;;;;;;;3.08;0.98;;;;;;;;;;5040848;28;20044;-72
2021/12/10 10:44:12;;;;;;;3.38;0.70;;;;;;;;;;5031423;28;20025;-74
2021/12/10 10:46:38;;;;;;;3.30;0.90;;;;;;;;;;5024704;28;20095;-72
2021/12/10 10:49:05;;;;;;;1.38;0.70;;;;;;;;;;5031737;28;20032;-72
2021/12/10 10:51:36;;;;;;;2.50;0.77;;;;;;;;;;5024790;28;20366;-74
2021/12/10 10:54:04;;;;;;;5.32;0.90;;;;;;;;;;5022870;28;20236;-72
2021/12/10 10:56:35;;;;;;;4.18;1.30;;;;;;;;;;5028817;28;20969;-72
2021/12/10 10:59:04;;;;;;;6.35;1.50;;;;;;;;;;5031856;28;20611;-72
2021/12/10 11:01:35;;;;;;;5.25;1.05;;;;;;;;;;5028317;28;20095;-72
2021/12/10 11:04:13;;;;;;;5.10;1.10;;;;;;;;;;5027695;28;20021;-73
2021/12/10 11:06:41;;;;;;;2.13;0.93;;;;;;;;;;5025669;28;20029;-73
2021/12/10 11:09:10;;;;;;;5.47;1.20;;;;;;;;;;5034792;28;20099;-73
2021/12/10 11:11:41;;;;;;;5.38;1.70;;;;;;;;;;5032498;28;20029;-72
2021/12/10 11:14:11;;;;;;;2.08;0.70;;;;;;;;;;5023604;28;20112;-73
2021/12/10 11:16:39;;;;;;;4.47;1.00;;;;;;;;;;5033417;28;20017;-74
2021/12/10 11:19:10;;;;;;;2.47;0.60;;;;;;;;;;5033015;28;20029;-71
2021/12/10 11:21:39;;;;;;;3.27;0.53;;;;;;;;;;5025463;28;20033;-72
2021/12/10 11:24:08;;;;;;;5.40;1.25;;;;;;;;;;5030384;28;20103;-72
2021/12/10 11:27:02;;;;;;;2.13;0.68;;;;;;;;;;5029640;28;20033;-73
2021/12/10 11:29:48;;;;;;;2.90;0.82;;;;;;;;;;5027556;28;20110;-72
2021/12/10 11:32:26;;;;;;;4.82;0.85;;;;;;;;;;5033756;28;20251;-71
2021/12/10 11:35:05;;;;;;;2.25;0.90;;;;;;;;;;5027967;28;20040;-73
2021/12/10 11:37:52;;;;;;;0.80;0.50;;;;;;;;;;5030886;28;20120;-73
2021/12/10 11:40:38;;;;;;;3.72;0.60;;;;;;;;;;5028711;28;20029;-73
2021/12/10 11:46:03;;;;;;;3.25;0.55;;;;;;;;;;5029882;28;20051;-73
2021/12/10 11:48:30;;;;;;;2.45;0.45;;;;;;;;;;5033873;28;20028;-72
2021/12/10 11:51:01;;;;;;;2.15;0.60;;;;;;;;;;5038106;28;20048;-73
2021/12/10 11:53:34;;;;;;;1.92;0.57;;;;;;;;;;5027392;28;20116;-73
2021/12/10 11:56:03;;;;;;;1.55;0.40;;;;;;;;;;5021896;28;20336;-73
2021/12/10 11:58:29;;;;;;;0.77;0.43;;;;;;;;;;5031624;28;20025;-73
2021/12/10 12:00:56;;;;;;;2.58;0.50;;;;;;;;;;5028586;28;20121;-79
2021/12/10 12:03:28;;;;;;;3.13;0.63;;;;;;;;;;5023726;28;20032;-73
2021/12/10 12:05:54;;;;;;;;;;;;;;;;;;5026400;28;20051;-73
2021/12/10 12:08:21;;;;;;;2.22;0.50;;;;;;;;;;5036088;28;20310;-73
2021/12/10 12:10:49;;;;;;;2.63;0.75;;;;;;;;;;5030810;28;20036;-73
2021/12/10 12:15:45;;;;;;;3.45;1.40;;;;;;;;;;5037206;28;20473;-73
2021/12/10 12:18:22;;;;;;;4.15;1.20;;;;;;;;;;5030924;28;20028;-73
2021/12/10 12:20:52;;;;;;;6.18;2.72;;;;;;;;;;5030746;28;20025;-73
2021/12/10 12:26:14;;;;;;;1.30;0.80;;;;;;;;;;5025789;28;20082;-73
2021/12/10 12:28:42;;;;;;;3.28;1.08;;;;;;;;;;5039053;28;20025;-73
2021/12/10 12:31:26;;;;;;;0.82;0.60;;;;;;;;;;5025819;28;20704;-73
2021/12/10 12:33:57;;;;;;;1.45;0.82;;;;;;;;;;5029138;28;20025;-72
2021/12/10 12:36:41;;;;;;;2.45;0.85;;;;;;;;;;5030139;28;20035;-72
2021/12/10 12:39:10;;;;;;;3.15;0.68;;;;;;;;;;5056015;28;20033;-72
2021/12/10 12:41:38;;;;;;;1.38;0.60;;;;;;;;;;5029144;28;20056;-72
2021/12/10 12:44:08;;;;;;;1.30;0.68;;;;;;;;;;5025522;28;20025;-73
2021/12/10 12:46:34;;;;;;;3.45;0.63;;;;;;;;;;5026643;28;20068;-73
2021/12/10 12:49:02;;;;;;;1.35;0.60;;;;;;;;;;5027509;28;20124;-72
2021/12/10 12:51:29;;;;;;;0.73;0.50;;;;;;;;;;5024150;28;20041;-72
2021/12/10 12:53:56;;;;;;;1.33;0.50;;;;;;;;;;5021367;28;20032;-72
2021/12/10 12:56:24;;;;;;;0.52;0.40;;;;;;;;;;5024634;28;20036;-72
2021/12/10 12:58:53;;;;;;;0.82;0.50;;;;;;;;;;5023817;28;20029;-72
2021/12/10 13:01:49;;;;;;;2.05;0.30;;;;;;;;;;5027534;28;20041;-72
2021/12/10 13:04:22;;;;;;;0.90;0.47;;;;;;;;;;5018715;28;20052;-72
2021/12/10 13:06:57;;;;;;;2.45;0.85;;;;;;;;;;5023993;28;20198;-72
2021/12/10 13:09:28;;;;;;;2.03;1.05;;;;;;;;;;5032648;28;20578;-72
2021/12/10 13:12:09;;;;;;;1.05;0.70;;;;;;;;;;5029379;28;20474;-72
2021/12/10 13:14:49;;;;;;;1.33;0.57;;;;;;;;;;5029774;28;20053;-73
2021/12/10 13:17:15;;;;;;;0.68;0.55;;;;;;;;;;5042876;28;20488;-71
2021/12/10 13:19:41;;;;;;;2.50;1.35;;;;;;;;;;5026114;28;20574;-72
2021/12/10 13:22:13;;;;;;;2.03;0.70;;;;;;;;;;5021186;28;20025;-72
2021/12/10 13:24:41;;;;;;;2.00;0.50;;;;;;;;;;5027135;28;20049;-72
2021/12/10 13:27:08;;;;;;;0.70;0.52;;;;;;;;;;5028656;28;20029;-72
2021/12/10 13:29:34;;;;;;;4.10;1.83;;;;;;;;;;5026649;28;20541;-72
2021/12/10 13:32:02;;;;;;;1.60;0.82;;;;;;;;;;5019898;28;20113;-73
2021/12/10 13:34:28;;;;;;;0.20;0.20;;;;;;;;;;5039481;28;20472;-71
2021/12/10 13:36:57;;;;;;;0.30;0.30;;;;;;;;;;5033598;28;20031;-70
2021/12/10 13:39:23;;;;;;;1.70;0.57;;;;;;;;;;5025646;28;20029;-70
2021/12/10 13:41:49;;;;;;;1.80;0.80;;;;;;;;;;5033962;28;20500;-71
2021/12/10 13:44:31;;;;;;;1.67;0.70;;;;;;;;;;5029562;28;20457;-70
2021/12/10 13:47:00;;;;;;;2.20;0.50;;;;;;;;;;5027484;28;20029;-70
2021/12/10 13:49:43;;;;;;;2.10;1.42;;;;;;;;;;5031389;28;20068;-70
2021/12/10 13:52:09;;;;;;;1.42;0.75;;;;;;;;;;5028724;28;20095;-72
2021/12/10 13:54:35;;;;;;;1.50;0.88;;;;;;;;;;5027348;28;20112;-70
2021/12/10 13:57:04;;;;;;;1.55;0.90;;;;;;;;;;5026071;28;20030;-70
2021/12/10 13:59:31;;;;;;;1.85;1.40;;;;;;;;;;5034615;28;20048;-70
2021/12/10 14:02:00;;;;;;;1.75;0.60;;;;;;;;;;5026144;28;20884;-71
2021/12/10 14:04:29;;;;;;;1.80;1.08;;;;;;;;;;5034808;28;20109;-71
2021/12/10 14:06:58;;;;;;;2.45;1.00;;;;;;;;;;5034730;28;20029;-71
2021/12/10 14:09:43;;;;;;;1.48;1.00;;;;;;;;;;5031119;28;20576;-71
2021/12/10 14:12:17;;;;;;;3.03;1.63;;;;;;;;;;5036213;28;20017;-71
2021/12/10 14:14:51;;;;;;;1.50;0.90;;;;;;;;;;5034483;28;20040;-72
2021/12/10 14:17:24;;;;;;;0.80;0.50;;;;;;;;;;5027617;28;20021;-72
2021/12/10 14:19:51;;;;;;;1.70;1.00;;;;;;;;;;5026235;28;20502;-72
2021/12/10 14:22:34;;;;;;;3.50;1.65;;;;;;;;;;5036478;28;20025;-72
2021/12/10 14:25:01;;;;;;;2.35;1.00;;;;;;;;;;5030498;28;20032;-72
2021/12/10 14:27:28;;;;;;;2.78;1.23;;;;;;;;;;5024122;28;20742;-72
2021/12/10 14:30:13;;;;;;;2.28;0.95;;;;;;;;;;5059496;28;20033;-71
2021/12/10 14:32:40;;;;;;;1.95;0.80;;;;;;;;;;5027056;28;20026;-71
2021/12/10 14:35:09;;;;;;;1.58;0.90;;;;;;;;;;5028503;28;20041;-71
2021/12/10 14:37:47;;;;;;;1.83;0.65;;;;;;;;;;5040607;28;20099;-71
2021/12/10 14:40:13;;;;;;;1.90;0.80;;;;;;;;;;5028265;28;20056;-71
2021/12/10 14:42:40;;;;;;;2.13;0.50;;;;;;;;;;5026798;28;20029;-71
2021/12/10 14:45:08;;;;;;;1.20;0.65;;;;;;;;;;5030831;28;20552;-71
2021/12/10 14:47:34;;;;;;;2.53;0.68;;;;;;;;;;5027622;28;20120;-71
2021/12/10 14:50:02;;;;;;;1.08;0.40;;;;;;;;;;5038936;28;20064;-72
2021/12/10 14:52:38;;;;;;;1.40;0.60;;;;;;;;;;5026662;28;20044;-71
2021/12/10 14:55:10;;;;;;;4.53;1.15;;;;;;;;;;5031252;28;20021;-71
2021/12/10 14:57:55;;;;;;;2.55;0.75;;;;;;;;;;5028192;28;20036;-71
2021/12/10 15:00:33;;;;;;;2.00;0.70;;;;;;;;;;5024888;28;20102;-71
2021/12/10 15:03:11;;;;;;;2.00;1.02;;;;;;;;;;5028362;28;20833;-71
2021/12/10 15:05:38;;;;;;;0.93;0.47;;;;;;;;;;5024656;28;20037;-71
2021/12/10 15:08:05;;;;;;;1.75;0.50;;;;;;;;;;5028715;28;20389;-72